sensor_id;sensor_type;location;lat;lon;timestamp;P1;durP1;ratioP1;P2;durP2;ratioP2
71941;SDS011;59997;53.300;-6.260;2022-07-09T00:00:34;5.87;;;1.77;;
71941;SDS011;59997;53.300;-6.260;2022-07-09T00:03:00;7.57;;;2.72;;
71941;SDS011;59997;53.300;-6.260;2022-07-09T00:05:26;5.93;;;1.80;;
71941;SDS011;59997;53.300;-6.260;2022-07-09T00:07:52;6.18;;;1.75;;
71941;SDS011;59997;53.300;-6.260;2022-07-09T00:10:18;5.65;;;1.92;;
71941;SDS011;59997;53.300;-6.260;2022-07-09T00:12:43;7.03;;;1.88;;
71941;SDS011;59997;53.300;-6.260;2022-07-09T00:15:11;5.60;;;1.90;;
71941;SDS011;59997;53.300;-6.260;2022-07-09T00:17:38;6.30;;;1.85;;
71941;SDS011;59997;53.300;-6.260;2022-07-09T00:20:04;7.38;;;2.08;;
71941;SDS011;59997;53.300;-6.260;2022-07-09T00:22:31;6.65;;;1.58;;
71941;SDS011;59997;53.300;-6.260;2022-07-09T00:24:58;6.45;;;1.60;;
71941;SDS011;59997;53.300;-6.260;2022-07-09T00:27:25;6.80;;;1.60;;
71941;SDS011;59997;53.300;-6.260;2022-07-09T00:29:51;5.55;;;1.65;;
71941;SDS011;59997;53.300;-6.260;2022-07-09T00:32:17;5.65;;;1.60;;
71941;SDS011;59997;53.300;-6.260;2022-07-09T00:34:44;6.40;;;1.60;;
71941;SDS011;59997;53.300;-6.260;2022-07-09T00:37:12;6.05;;;1.50;;
71941;SDS011;59997;53.300;-6.260;2022-07-09T00:39:38;5.63;;;1.57;;
71941;SDS011;59997;53.300;-6.260;2022-07-09T00:42:04;5.20;;;1.35;;
71941;SDS011;59997;53.300;-6.260;2022-07-09T00:44:35;7.80;;;1.73;;
71941;SDS011;59997;53.300;-6.260;2022-07-09T00:47:02;5.30;;;1.50;;
71941;SDS011;59997;53.300;-6.260;2022-07-09T00:49:29;6.60;;;1.50;;
71941;SDS011;59997;53.300;-6.260;2022-07-09T00:51:57;7.18;;;1.70;;
71941;SDS011;59997;53.300;-6.260;2022-07-09T00:54:24;5.68;;;1.40;;
71941;SDS011;59997;53.300;-6.260;2022-07-09T00:56:55;6.05;;;1.40;;
71941;SDS011;59997;53.300;-6.260;2022-07-09T00:59:21;5.70;;;1.30;;
71941;SDS011;59997;53.300;-6.260;2022-07-09T01:01:48;7.78;;;1.50;;
71941;SDS011;59997;53.300;-6.260;2022-07-09T01:04:15;5.50;;;1.40;;
71941;SDS011;59997;53.300;-6.260;2022-07-09T01:06:40;7.13;;;1.40;;
71941;SDS011;59997;53.300;-6.260;2022-07-09T01:09:06;6.10;;;1.40;;
71941;SDS011;59997;53.300;-6.260;2022-07-09T01:11:32;5.65;;;1.20;;
71941;SDS011;59997;53.300;-6.260;2022-07-09T01:13:59;7.07;;;1.60;;
71941;SDS011;59997;53.300;-6.260;2022-07-09T01:16:38;5.67;;;1.40;;
71941;SDS011;59997;53.300;-6.260;2022-07-09T01:19:04;5.13;;;1.33;;
71941;SDS011;59997;53.300;-6.260;2022-07-09T01:21:30;6.15;;;1.30;;
71941;SDS011;59997;53.300;-6.260;2022-07-09T01:23:55;6.55;;;1.45;;
71941;SDS011;59997;53.300;-6.260;2022-07-09T01:26:26;6.00;;;1.33;;
71941;SDS011;59997;53.300;-6.260;2022-07-09T01:28:53;6.55;;;1.52;;
71941;SDS011;59997;53.300;-6.260;2022-07-09T01:31:19;4.97;;;1.20;;
71941;SDS011;59997;53.300;-6.260;2022-07-09T01:33:45;5.88;;;1.50;;
71941;SDS011;59997;53.300;-6.260;2022-07-09T01:36:12;6.35;;;1.45;;
71941;SDS011;59997;53.300;-6.260;2022-07-09T01:38:38;5.55;;;1.40;;
71941;SDS011;59997;53.300;-6.260;2022-07-09T01:41:03;5.57;;;1.70;;
71941;SDS011;59997;53.300;-6.260;2022-07-09T01:43:29;6.47;;;1.40;;
71941;SDS011;59997;53.300;-6.260;2022-07-09T01:45:57;7.28;;;1.98;;
71941;SDS011;59997;53.300;-6.260;2022-07-09T01:48:25;6.43;;;1.80;;
71941;SDS011;59997;53.300;-6.260;2022-07-09T01:50:51;6.18;;;1.67;;
71941;SDS011;59997;53.300;-6.260;2022-07-09T01:53:19;6.22;;;1.90;;
71941;SDS011;59997;53.300;-6.260;2022-07-09T01:55:45;7.57;;;2.50;;
71941;SDS011;59997;53.300;-6.260;2022-07-09T01:58:10;7.57;;;2.50;;
71941;SDS011;59997;53.300;-6.260;2022-07-09T02:00:36;8.73;;;3.00;;
71941;SDS011;59997;53.300;-6.260;2022-07-09T02:03:01;7.43;;;2.90;;
71941;SDS011;59997;53.300;-6.260;2022-07-09T02:05:29;6.65;;;2.50;;
71941;SDS011;59997;53.300;-6.260;2022-07-09T02:07:55;6.72;;;2.60;;
71941;SDS011;59997;53.300;-6.260;2022-07-09T02:10:21;6.23;;;2.60;;
71941;SDS011;59997;53.300;-6.260;2022-07-09T02:12:47;6.47;;;2.65;;
71941;SDS011;59997;53.300;-6.260;2022-07-09T02:15:12;6.57;;;2.70;;
71941;SDS011;59997;53.300;-6.260;2022-07-09T02:17:39;6.90;;;2.47;;
71941;SDS011;59997;53.300;-6.260;2022-07-09T02:20:05;6.00;;;2.40;;
71941;SDS011;59997;53.300;-6.260;2022-07-09T02:22:34;8.30;;;2.45;;
71941;SDS011;59997;53.300;-6.260;2022-07-09T02:25:00;6.17;;;2.40;;
71941;SDS011;59997;53.300;-6.260;2022-07-09T02:27:26;7.60;;;2.40;;
71941;SDS011;59997;53.300;-6.260;2022-07-09T02:29:51;7.65;;;2.50;;
71941;SDS011;59997;53.300;-6.260;2022-07-09T02:32:18;7.30;;;2.00;;
71941;SDS011;59997;53.300;-6.260;2022-07-09T02:34:43;6.72;;;2.35;;
71941;SDS011;59997;53.300;-6.260;2022-07-09T02:37:09;7.10;;;2.10;;
71941;SDS011;59997;53.300;-6.260;2022-07-09T02:39:36;6.63;;;2.10;;
71941;SDS011;59997;53.300;-6.260;2022-07-09T02:42:02;6.97;;;2.10;;
71941;SDS011;59997;53.300;-6.260;2022-07-09T02:44:29;6.45;;;1.70;;
71941;SDS011;59997;53.300;-6.260;2022-07-09T02:46:54;7.03;;;2.05;;
71941;SDS011;59997;53.300;-6.260;2022-07-09T02:49:21;7.50;;;1.80;;
71941;SDS011;59997;53.300;-6.260;2022-07-09T02:51:49;8.95;;;2.20;;
71941;SDS011;59997;53.300;-6.260;2022-07-09T02:54:14;8.87;;;1.90;;
71941;SDS011;59997;53.300;-6.260;2022-07-09T02:56:40;5.97;;;1.60;;
71941;SDS011;59997;53.300;-6.260;2022-07-09T02:59:06;5.57;;;1.90;;
71941;SDS011;59997;53.300;-6.260;2022-07-09T03:01:31;6.65;;;1.90;;
71941;SDS011;59997;53.300;-6.260;2022-07-09T03:03:57;8.97;;;2.03;;
71941;SDS011;59997;53.300;-6.260;2022-07-09T03:06:23;9.17;;;2.10;;
71941;SDS011;59997;53.300;-6.260;2022-07-09T03:08:49;6.47;;;1.85;;
71941;SDS011;59997;53.300;-6.260;2022-07-09T03:11:15;8.50;;;2.10;;
71941;SDS011;59997;53.300;-6.260;2022-07-09T03:13:40;7.85;;;2.05;;
71941;SDS011;59997;53.300;-6.260;2022-07-09T03:16:06;5.50;;;1.83;;
71941;SDS011;59997;53.300;-6.260;2022-07-09T03:18:32;7.50;;;2.10;;
71941;SDS011;59997;53.300;-6.260;2022-07-09T03:20:59;7.38;;;2.10;;
71941;SDS011;59997;53.300;-6.260;2022-07-09T03:23:25;7.13;;;2.00;;
71941;SDS011;59997;53.300;-6.260;2022-07-09T03:25:51;7.82;;;2.42;;
71941;SDS011;59997;53.300;-6.260;2022-07-09T03:28:17;5.93;;;2.15;;
71941;SDS011;59997;53.300;-6.260;2022-07-09T03:30:44;6.37;;;2.13;;
71941;SDS011;59997;53.300;-6.260;2022-07-09T03:33:09;6.05;;;1.98;;
71941;SDS011;59997;53.300;-6.260;2022-07-09T03:35:35;7.03;;;2.40;;
71941;SDS011;59997;53.300;-6.260;2022-07-09T03:38:00;6.90;;;1.98;;
71941;SDS011;59997;53.300;-6.260;2022-07-09T03:40:26;5.80;;;2.03;;
71941;SDS011;59997;53.300;-6.260;2022-07-09T03:42:52;7.43;;;2.10;;
71941;SDS011;59997;53.300;-6.260;2022-07-09T03:45:19;7.63;;;1.93;;
71941;SDS011;59997;53.300;-6.260;2022-07-09T03:47:45;7.55;;;2.25;;
71941;SDS011;59997;53.300;-6.260;2022-07-09T03:50:11;6.60;;;1.92;;
71941;SDS011;59997;53.300;-6.260;2022-07-09T03:52:38;6.43;;;1.80;;
71941;SDS011;59997;53.300;-6.260;2022-07-09T03:55:04;6.40;;;2.07;;
71941;SDS011;59997;53.300;-6.260;2022-07-09T03:57:30;6.50;;;1.75;;
71941;SDS011;59997;53.300;-6.260;2022-07-09T03:59:55;9.57;;;2.30;;
71941;SDS011;59997;53.300;-6.260;2022-07-09T04:02:22;7.30;;;1.92;;
71941;SDS011;59997;53.300;-6.260;2022-07-09T04:04:48;6.13;;;1.63;;
71941;SDS011;59997;53.300;-6.260;2022-07-09T04:07:15;6.53;;;2.17;;
71941;SDS011;59997;53.300;-6.260;2022-07-09T04:09:40;8.10;;;2.20;;
71941;SDS011;59997;53.300;-6.260;2022-07-09T04:12:07;7.90;;;2.20;;
71941;SDS011;59997;53.300;-6.260;2022-07-09T04:14:34;6.88;;;2.25;;
71941;SDS011;59997;53.300;-6.260;2022-07-09T04:17:00;7.73;;;2.37;;
71941;SDS011;59997;53.300;-6.260;2022-07-09T04:19:26;7.15;;;2.10;;
71941;SDS011;59997;53.300;-6.260;2022-07-09T04:21:52;6.07;;;1.88;;
71941;SDS011;59997;53.300;-6.260;2022-07-09T04:24:18;7.55;;;1.95;;
71941;SDS011;59997;53.300;-6.260;2022-07-09T04:26:43;6.90;;;2.10;;
71941;SDS011;59997;53.300;-6.260;2022-07-09T04:29:09;7.37;;;2.30;;
71941;SDS011;59997;53.300;-6.260;2022-07-09T04:31:38;5.82;;;2.05;;
71941;SDS011;59997;53.300;-6.260;2022-07-09T04:34:04;7.00;;;2.20;;
71941;SDS011;59997;53.300;-6.260;2022-07-09T04:36:29;7.68;;;2.15;;
71941;SDS011;59997;53.300;-6.260;2022-07-09T04:38:56;7.32;;;1.85;;
71941;SDS011;59997;53.300;-6.260;2022-07-09T04:41:22;7.50;;;2.45;;
71941;SDS011;59997;53.300;-6.260;2022-07-09T04:43:48;6.57;;;2.30;;
71941;SDS011;59997;53.300;-6.260;2022-07-09T04:46:14;8.82;;;2.22;;
71941;SDS011;59997;53.300;-6.260;2022-07-09T04:48:42;8.25;;;2.25;;
71941;SDS011;59997;53.300;-6.260;2022-07-09T04:51:07;6.35;;;2.10;;
71941;SDS011;59997;53.300;-6.260;2022-07-09T04:53:33;7.50;;;2.10;;
71941;SDS011;59997;53.300;-6.260;2022-07-09T04:55:59;8.15;;;2.38;;
71941;SDS011;59997;53.300;-6.260;2022-07-09T04:58:24;6.70;;;1.90;;
71941;SDS011;59997;53.300;-6.260;2022-07-09T05:00:51;6.30;;;1.95;;
71941;SDS011;59997;53.300;-6.260;2022-07-09T05:03:17;6.30;;;2.03;;
71941;SDS011;59997;53.300;-6.260;2022-07-09T05:05:43;7.03;;;2.10;;
71941;SDS011;59997;53.300;-6.260;2022-07-09T05:08:09;8.07;;;2.33;;
71941;SDS011;59997;53.300;-6.260;2022-07-09T05:10:35;10.55;;;2.00;;
71941;SDS011;59997;53.300;-6.260;2022-07-09T05:13:01;5.32;;;1.80;;
71941;SDS011;59997;53.300;-6.260;2022-07-09T05:15:27;6.03;;;1.80;;
71941;SDS011;59997;53.300;-6.260;2022-07-09T05:17:56;6.15;;;1.80;;
71941;SDS011;59997;53.300;-6.260;2022-07-09T05:20:22;8.10;;;1.80;;
71941;SDS011;59997;53.300;-6.260;2022-07-09T05:22:47;7.30;;;2.13;;
71941;SDS011;59997;53.300;-6.260;2022-07-09T05:25:13;5.60;;;1.80;;
71941;SDS011;59997;53.300;-6.260;2022-07-09T05:27:43;5.97;;;1.83;;
71941;SDS011;59997;53.300;-6.260;2022-07-09T05:30:11;7.00;;;1.95;;
71941;SDS011;59997;53.300;-6.260;2022-07-09T05:32:39;5.53;;;1.50;;
71941;SDS011;59997;53.300;-6.260;2022-07-09T05:35:05;6.07;;;1.80;;
71941;SDS011;59997;53.300;-6.260;2022-07-09T05:37:31;6.38;;;1.50;;
71941;SDS011;59997;53.300;-6.260;2022-07-09T05:39:58;6.33;;;1.77;;
71941;SDS011;59997;53.300;-6.260;2022-07-09T05:42:25;6.70;;;1.67;;
71941;SDS011;59997;53.300;-6.260;2022-07-09T05:44:51;7.80;;;1.90;;
71941;SDS011;59997;53.300;-6.260;2022-07-09T05:47:17;6.35;;;1.50;;
71941;SDS011;59997;53.300;-6.260;2022-07-09T05:49:43;10.25;;;1.80;;
71941;SDS011;59997;53.300;-6.260;2022-07-09T05:52:08;6.87;;;1.70;;
71941;SDS011;59997;53.300;-6.260;2022-07-09T05:54:34;7.77;;;2.20;;
71941;SDS011;59997;53.300;-6.260;2022-07-09T05:57:01;7.10;;;2.00;;
71941;SDS011;59997;53.300;-6.260;2022-07-09T05:59:27;7.67;;;2.20;;
71941;SDS011;59997;53.300;-6.260;2022-07-09T06:01:53;6.20;;;2.30;;
71941;SDS011;59997;53.300;-6.260;2022-07-09T06:04:20;6.47;;;2.20;;
71941;SDS011;59997;53.300;-6.260;2022-07-09T06:06:46;6.80;;;2.45;;
71941;SDS011;59997;53.300;-6.260;2022-07-09T06:09:12;7.15;;;2.03;;
71941;SDS011;59997;53.300;-6.260;2022-07-09T06:11:37;6.30;;;2.10;;
71941;SDS011;59997;53.300;-6.260;2022-07-09T06:14:03;5.73;;;2.23;;
71941;SDS011;59997;53.300;-6.260;2022-07-09T06:16:29;8.47;;;2.37;;
71941;SDS011;59997;53.300;-6.260;2022-07-09T06:18:56;6.07;;;2.60;;
71941;SDS011;59997;53.300;-6.260;2022-07-09T06:21:22;6.25;;;2.13;;
71941;SDS011;59997;53.300;-6.260;2022-07-09T06:23:47;7.80;;;2.53;;
71941;SDS011;59997;53.300;-6.260;2022-07-09T06:26:13;8.53;;;2.50;;
71941;SDS011;59997;53.300;-6.260;2022-07-09T06:28:39;7.28;;;2.70;;
71941;SDS011;59997;53.300;-6.260;2022-07-09T06:31:05;9.23;;;2.65;;
71941;SDS011;59997;53.300;-6.260;2022-07-09T06:33:30;7.07;;;3.10;;
71941;SDS011;59997;53.300;-6.260;2022-07-09T06:35:56;7.20;;;2.90;;
71941;SDS011;59997;53.300;-6.260;2022-07-09T06:38:21;8.27;;;3.13;;
71941;SDS011;59997;53.300;-6.260;2022-07-09T06:40:47;9.47;;;3.23;;
71941;SDS011;59997;53.300;-6.260;2022-07-09T06:43:13;8.83;;;3.57;;
71941;SDS011;59997;53.300;-6.260;2022-07-09T06:45:39;8.23;;;3.50;;
71941;SDS011;59997;53.300;-6.260;2022-07-09T06:48:05;7.47;;;3.35;;
71941;SDS011;59997;53.300;-6.260;2022-07-09T06:50:31;8.27;;;3.33;;
71941;SDS011;59997;53.300;-6.260;2022-07-09T06:52:58;11.55;;;3.38;;
71941;SDS011;59997;53.300;-6.260;2022-07-09T06:55:23;8.60;;;3.60;;
71941;SDS011;59997;53.300;-6.260;2022-07-09T06:57:49;11.88;;;3.85;;
71941;SDS011;59997;53.300;-6.260;2022-07-09T07:00:15;9.37;;;3.57;;
71941;SDS011;59997;53.300;-6.260;2022-07-09T07:02:41;25.53;;;4.33;;
71941;SDS011;59997;53.300;-6.260;2022-07-09T07:05:07;9.52;;;3.78;;
71941;SDS011;59997;53.300;-6.260;2022-07-09T07:07:32;7.90;;;3.40;;
71941;SDS011;59997;53.300;-6.260;2022-07-09T07:09:58;6.90;;;3.20;;
71941;SDS011;59997;53.300;-6.260;2022-07-09T07:12:24;7.70;;;3.40;;
71941;SDS011;59997;53.300;-6.260;2022-07-09T07:14:50;9.65;;;3.47;;
71941;SDS011;59997;53.300;-6.260;2022-07-09T07:17:18;7.38;;;2.97;;
71941;SDS011;59997;53.300;-6.260;2022-07-09T07:19:45;6.25;;;2.60;;
71941;SDS011;59997;53.300;-6.260;2022-07-09T07:22:11;6.50;;;2.50;;
71941;SDS011;59997;53.300;-6.260;2022-07-09T07:24:37;5.95;;;2.17;;
71941;SDS011;59997;53.300;-6.260;2022-07-09T07:27:02;8.97;;;2.77;;
71941;SDS011;59997;53.300;-6.260;2022-07-09T07:29:28;6.23;;;2.30;;
71941;SDS011;59997;53.300;-6.260;2022-07-09T07:31:54;6.28;;;1.95;;
71941;SDS011;59997;53.300;-6.260;2022-07-09T07:34:21;5.78;;;1.83;;
71941;SDS011;59997;53.300;-6.260;2022-07-09T07:36:50;7.70;;;2.22;;
71941;SDS011;59997;53.300;-6.260;2022-07-09T07:39:17;5.90;;;2.17;;
71941;SDS011;59997;53.300;-6.260;2022-07-09T07:41:47;5.63;;;1.85;;
71941;SDS011;59997;53.300;-6.260;2022-07-09T07:44:13;7.38;;;2.15;;
71941;SDS011;59997;53.300;-6.260;2022-07-09T07:46:40;5.43;;;1.90;;
71941;SDS011;59997;53.300;-6.260;2022-07-09T07:49:06;8.33;;;1.60;;
71941;SDS011;59997;53.300;-6.260;2022-07-09T07:51:32;4.85;;;1.40;;
71941;SDS011;59997;53.300;-6.260;2022-07-09T07:53:58;5.87;;;1.60;;
71941;SDS011;59997;53.300;-6.260;2022-07-09T07:56:24;5.33;;;1.53;;
71941;SDS011;59997;53.300;-6.260;2022-07-09T07:58:50;6.25;;;1.20;;
71941;SDS011;59997;53.300;-6.260;2022-07-09T08:01:16;6.18;;;1.35;;
71941;SDS011;59997;53.300;-6.260;2022-07-09T08:03:43;5.78;;;1.33;;
71941;SDS011;59997;53.300;-6.260;2022-07-09T08:06:09;5.00;;;1.40;;
71941;SDS011;59997;53.300;-6.260;2022-07-09T08:08:34;5.70;;;1.50;;
71941;SDS011;59997;53.300;-6.260;2022-07-09T08:11:01;5.60;;;1.20;;
71941;SDS011;59997;53.300;-6.260;2022-07-09T08:13:28;5.55;;;1.40;;
71941;SDS011;59997;53.300;-6.260;2022-07-09T08:15:55;5.25;;;1.45;;
71941;SDS011;59997;53.300;-6.260;2022-07-09T08:18:21;5.18;;;1.58;;
71941;SDS011;59997;53.300;-6.260;2022-07-09T08:20:47;4.93;;;1.20;;
71941;SDS011;59997;53.300;-6.260;2022-07-09T08:23:15;6.10;;;1.13;;
71941;SDS011;59997;53.300;-6.260;2022-07-09T08:25:41;4.00;;;0.77;;
71941;SDS011;59997;53.300;-6.260;2022-07-09T08:28:07;4.10;;;0.73;;
71941;SDS011;59997;53.300;-6.260;2022-07-09T08:30:34;6.50;;;1.10;;
71941;SDS011;59997;53.300;-6.260;2022-07-09T08:33:00;4.30;;;1.30;;
71941;SDS011;59997;53.300;-6.260;2022-07-09T08:35:26;4.75;;;1.10;;
71941;SDS011;59997;53.300;-6.260;2022-07-09T08:37:52;4.30;;;1.00;;
71941;SDS011;59997;53.300;-6.260;2022-07-09T08:40:20;5.38;;;1.20;;
71941;SDS011;59997;53.300;-6.260;2022-07-09T08:42:48;5.40;;;1.15;;
71941;SDS011;59997;53.300;-6.260;2022-07-09T08:45:16;5.53;;;1.05;;
71941;SDS011;59997;53.300;-6.260;2022-07-09T08:47:42;4.75;;;1.10;;
71941;SDS011;59997;53.300;-6.260;2022-07-09T08:50:08;4.77;;;1.00;;
71941;SDS011;59997;53.300;-6.260;2022-07-09T08:52:35;5.78;;;1.00;;
71941;SDS011;59997;53.300;-6.260;2022-07-09T08:55:02;5.88;;;1.05;;
71941;SDS011;59997;53.300;-6.260;2022-07-09T08:57:30;5.88;;;1.08;;
71941;SDS011;59997;53.300;-6.260;2022-07-09T08:59:57;4.50;;;1.23;;
71941;SDS011;59997;53.300;-6.260;2022-07-09T09:02:23;4.10;;;1.10;;
71941;SDS011;59997;53.300;-6.260;2022-07-09T09:04:50;5.13;;;1.10;;
71941;SDS011;59997;53.300;-6.260;2022-07-09T09:07:17;5.25;;;1.30;;
71941;SDS011;59997;53.300;-6.260;2022-07-09T09:09:44;4.25;;;1.00;;
71941;SDS011;59997;53.300;-6.260;2022-07-09T09:12:11;4.70;;;1.20;;
71941;SDS011;59997;53.300;-6.260;2022-07-09T09:14:37;4.13;;;1.17;;
71941;SDS011;59997;53.300;-6.260;2022-07-09T09:17:09;4.07;;;0.93;;
71941;SDS011;59997;53.300;-6.260;2022-07-09T09:19:37;5.15;;;1.40;;
71941;SDS011;59997;53.300;-6.260;2022-07-09T09:22:04;4.88;;;1.95;;
71941;SDS011;59997;53.300;-6.260;2022-07-09T09:24:31;4.53;;;1.10;;
71941;SDS011;59997;53.300;-6.260;2022-07-09T09:26:59;3.93;;;0.97;;
71941;SDS011;59997;53.300;-6.260;2022-07-09T09:29:26;4.07;;;1.00;;
71941;SDS011;59997;53.300;-6.260;2022-07-09T09:31:52;4.15;;;0.85;;
71941;SDS011;59997;53.300;-6.260;2022-07-09T09:34:19;4.20;;;1.00;;
71941;SDS011;59997;53.300;-6.260;2022-07-09T09:36:47;4.10;;;0.80;;
71941;SDS011;59997;53.300;-6.260;2022-07-09T09:39:25;4.80;;;0.90;;
71941;SDS011;59997;53.300;-6.260;2022-07-09T09:44:34;3.78;;;0.90;;
71941;SDS011;59997;53.300;-6.260;2022-07-09T09:47:04;4.05;;;1.05;;
71941;SDS011;59997;53.300;-6.260;2022-07-09T09:49:31;3.83;;;0.85;;
71941;SDS011;59997;53.300;-6.260;2022-07-09T09:52:09;4.13;;;0.90;;
71941;SDS011;59997;53.300;-6.260;2022-07-09T09:54:38;3.80;;;0.90;;
71941;SDS011;59997;53.300;-6.260;2022-07-09T09:57:06;4.65;;;1.30;;
71941;SDS011;59997;53.300;-6.260;2022-07-09T09:59:34;6.53;;;1.30;;
71941;SDS011;59997;53.300;-6.260;2022-07-09T10:02:02;4.38;;;1.02;;
71941;SDS011;59997;53.300;-6.260;2022-07-09T10:04:32;4.67;;;1.00;;
71941;SDS011;59997;53.300;-6.260;2022-07-09T10:06:58;4.18;;;0.82;;
71941;SDS011;59997;53.300;-6.260;2022-07-09T10:09:25;4.18;;;0.90;;
71941;SDS011;59997;53.300;-6.260;2022-07-09T10:11:51;4.85;;;1.00;;
71941;SDS011;59997;53.300;-6.260;2022-07-09T10:16:48;5.78;;;0.95;;
71941;SDS011;59997;53.300;-6.260;2022-07-09T10:19:26;4.60;;;1.40;;
71941;SDS011;59997;53.300;-6.260;2022-07-09T10:21:55;4.80;;;1.05;;
71941;SDS011;59997;53.300;-6.260;2022-07-09T10:24:29;5.88;;;1.25;;
71941;SDS011;59997;53.300;-6.260;2022-07-09T10:27:10;4.00;;;0.93;;
71941;SDS011;59997;53.300;-6.260;2022-07-09T10:29:56;4.20;;;0.95;;
71941;SDS011;59997;53.300;-6.260;2022-07-09T10:32:26;4.70;;;0.90;;
71941;SDS011;59997;53.300;-6.260;2022-07-09T10:35:03;4.68;;;1.25;;
71941;SDS011;59997;53.300;-6.260;2022-07-09T10:37:41;5.68;;;1.13;;
71941;SDS011;59997;53.300;-6.260;2022-07-09T10:40:16;5.85;;;1.30;;
71941;SDS011;59997;53.300;-6.260;2022-07-09T10:42:44;4.18;;;1.27;;
71941;SDS011;59997;53.300;-6.260;2022-07-09T10:45:35;4.20;;;1.10;;
71941;SDS011;59997;53.300;-6.260;2022-07-09T10:48:03;16.52;;;1.70;;
71941;SDS011;59997;53.300;-6.260;2022-07-09T10:50:30;4.38;;;1.52;;
71941;SDS011;59997;53.300;-6.260;2022-07-09T10:53:00;4.50;;;1.30;;
71941;SDS011;59997;53.300;-6.260;2022-07-09T10:55:27;4.50;;;1.83;;
71941;SDS011;59997;53.300;-6.260;2022-07-09T10:57:53;4.73;;;1.40;;
71941;SDS011;59997;53.300;-6.260;2022-07-09T11:00:21;4.40;;;1.48;;
71941;SDS011;59997;53.300;-6.260;2022-07-09T11:02:53;5.57;;;1.90;;
71941;SDS011;59997;53.300;-6.260;2022-07-09T11:05:21;5.03;;;0.90;;
71941;SDS011;59997;53.300;-6.260;2022-07-09T11:07:57;4.25;;;1.00;;
71941;SDS011;59997;53.300;-6.260;2022-07-09T11:10:33;5.07;;;1.00;;
71941;SDS011;59997;53.300;-6.260;2022-07-09T11:13:01;4.50;;;1.10;;
71941;SDS011;59997;53.300;-6.260;2022-07-09T11:15:29;5.10;;;0.90;;
71941;SDS011;59997;53.300;-6.260;2022-07-09T11:18:00;5.35;;;1.38;;
71941;SDS011;59997;53.300;-6.260;2022-07-09T11:23:11;5.30;;;1.00;;
71941;SDS011;59997;53.300;-6.260;2022-07-09T11:25:42;4.50;;;1.30;;
71941;SDS011;59997;53.300;-6.260;2022-07-09T11:28:17;4.47;;;1.33;;
71941;SDS011;59997;53.300;-6.260;2022-07-09T11:30:46;4.80;;;1.30;;
71941;SDS011;59997;53.300;-6.260;2022-07-09T11:33:26;3.92;;;1.10;;
71941;SDS011;59997;53.300;-6.260;2022-07-09T11:35:52;4.27;;;0.93;;
71941;SDS011;59997;53.300;-6.260;2022-07-09T11:38:18;5.30;;;1.00;;
71941;SDS011;59997;53.300;-6.260;2022-07-09T11:40:44;4.10;;;1.20;;
71941;SDS011;59997;53.300;-6.260;2022-07-09T11:43:15;6.23;;;0.90;;
71941;SDS011;59997;53.300;-6.260;2022-07-09T11:45:51;5.57;;;1.30;;
71941;SDS011;59997;53.300;-6.260;2022-07-09T11:48:17;4.70;;;1.00;;
71941;SDS011;59997;53.300;-6.260;2022-07-09T11:50:43;4.90;;;1.00;;
71941;SDS011;59997;53.300;-6.260;2022-07-09T11:53:24;4.88;;;1.05;;
71941;SDS011;59997;53.300;-6.260;2022-07-09T11:55:58;5.93;;;1.13;;
71941;SDS011;59997;53.300;-6.260;2022-07-09T11:58:29;4.33;;;1.00;;
71941;SDS011;59997;53.300;-6.260;2022-07-09T12:00:55;5.35;;;1.08;;
71941;SDS011;59997;53.300;-6.260;2022-07-09T12:03:25;4.95;;;1.20;;
71941;SDS011;59997;53.300;-6.260;2022-07-09T12:05:52;4.32;;;1.00;;
71941;SDS011;59997;53.300;-6.260;2022-07-09T12:08:31;5.55;;;1.10;;
71941;SDS011;59997;53.300;-6.260;2022-07-09T12:11:00;4.27;;;0.80;;
71941;SDS011;59997;53.300;-6.260;2022-07-09T12:13:27;3.83;;;0.70;;
71941;SDS011;59997;53.300;-6.260;2022-07-09T12:15:54;4.55;;;1.10;;
71941;SDS011;59997;53.300;-6.260;2022-07-09T12:18:20;5.13;;;0.93;;
71941;SDS011;59997;53.300;-6.260;2022-07-09T12:20:45;3.80;;;0.70;;
71941;SDS011;59997;53.300;-6.260;2022-07-09T12:23:11;4.50;;;0.67;;
71941;SDS011;59997;53.300;-6.260;2022-07-09T12:25:37;4.03;;;0.70;;
71941;SDS011;59997;53.300;-6.260;2022-07-09T12:28:03;4.80;;;0.67;;
71941;SDS011;59997;53.300;-6.260;2022-07-09T12:30:28;4.07;;;0.90;;
71941;SDS011;59997;53.300;-6.260;2022-07-09T12:32:55;4.03;;;1.00;;
71941;SDS011;59997;53.300;-6.260;2022-07-09T12:35:25;3.75;;;0.90;;
71941;SDS011;59997;53.300;-6.260;2022-07-09T12:37:51;4.65;;;0.90;;
71941;SDS011;59997;53.300;-6.260;2022-07-09T12:40:17;4.23;;;0.90;;
71941;SDS011;59997;53.300;-6.260;2022-07-09T12:42:44;3.80;;;0.80;;
71941;SDS011;59997;53.300;-6.260;2022-07-09T12:45:10;3.58;;;0.63;;
71941;SDS011;59997;53.300;-6.260;2022-07-09T12:47:37;4.17;;;0.97;;
71941;SDS011;59997;53.300;-6.260;2022-07-09T12:50:03;4.55;;;0.90;;
71941;SDS011;59997;53.300;-6.260;2022-07-09T12:52:30;3.90;;;0.85;;
71941;SDS011;59997;53.300;-6.260;2022-07-09T12:54:58;5.43;;;0.93;;
71941;SDS011;59997;53.300;-6.260;2022-07-09T12:57:26;3.83;;;0.90;;
71941;SDS011;59997;53.300;-6.260;2022-07-09T12:59:53;4.13;;;0.90;;
71941;SDS011;59997;53.300;-6.260;2022-07-09T13:02:18;4.20;;;0.82;;
71941;SDS011;59997;53.300;-6.260;2022-07-09T13:04:44;3.72;;;0.90;;
71941;SDS011;59997;53.300;-6.260;2022-07-09T13:07:11;4.77;;;0.90;;
71941;SDS011;59997;53.300;-6.260;2022-07-09T13:09:37;4.85;;;1.00;;
71941;SDS011;59997;53.300;-6.260;2022-07-09T13:12:03;4.70;;;1.13;;
71941;SDS011;59997;53.300;-6.260;2022-07-09T13:14:29;4.20;;;1.00;;
71941;SDS011;59997;53.300;-6.260;2022-07-09T13:16:55;5.82;;;1.50;;
71941;SDS011;59997;53.300;-6.260;2022-07-09T13:19:21;6.20;;;1.75;;
71941;SDS011;59997;53.300;-6.260;2022-07-09T13:21:47;5.10;;;1.37;;
71941;SDS011;59997;53.300;-6.260;2022-07-09T13:24:13;5.07;;;1.50;;
71941;SDS011;59997;53.300;-6.260;2022-07-09T13:26:40;5.28;;;1.50;;
71941;SDS011;59997;53.300;-6.260;2022-07-09T13:29:06;4.55;;;1.40;;
71941;SDS011;59997;53.300;-6.260;2022-07-09T13:31:31;5.90;;;1.30;;
71941;SDS011;59997;53.300;-6.260;2022-07-09T13:33:58;4.77;;;1.40;;
71941;SDS011;59997;53.300;-6.260;2022-07-09T13:36:24;5.25;;;1.70;;
71941;SDS011;59997;53.300;-6.260;2022-07-09T13:38:50;5.15;;;1.55;;
71941;SDS011;59997;53.300;-6.260;2022-07-09T13:41:16;4.73;;;1.30;;
71941;SDS011;59997;53.300;-6.260;2022-07-09T13:43:42;4.75;;;1.27;;
71941;SDS011;59997;53.300;-6.260;2022-07-09T13:46:11;4.75;;;1.30;;
71941;SDS011;59997;53.300;-6.260;2022-07-09T13:48:37;4.82;;;1.63;;
71941;SDS011;59997;53.300;-6.260;2022-07-09T13:51:03;4.50;;;1.50;;
71941;SDS011;59997;53.300;-6.260;2022-07-09T13:53:29;4.40;;;1.33;;
71941;SDS011;59997;53.300;-6.260;2022-07-09T13:55:57;4.55;;;1.42;;
71941;SDS011;59997;53.300;-6.260;2022-07-09T13:58:24;4.73;;;1.23;;
71941;SDS011;59997;53.300;-6.260;2022-07-09T14:00:50;4.60;;;1.10;;
71941;SDS011;59997;53.300;-6.260;2022-07-09T14:03:15;4.90;;;1.67;;
71941;SDS011;59997;53.300;-6.260;2022-07-09T14:05:42;4.57;;;1.33;;
71941;SDS011;59997;53.300;-6.260;2022-07-09T14:08:08;4.88;;;1.60;;
71941;SDS011;59997;53.300;-6.260;2022-07-09T14:10:34;7.25;;;1.73;;
71941;SDS011;59997;53.300;-6.260;2022-07-09T14:13:00;6.13;;;1.60;;
71941;SDS011;59997;53.300;-6.260;2022-07-09T14:15:27;5.90;;;1.20;;
71941;SDS011;59997;53.300;-6.260;2022-07-09T14:17:53;4.40;;;1.30;;
71941;SDS011;59997;53.300;-6.260;2022-07-09T14:20:19;5.18;;;1.58;;
71941;SDS011;59997;53.300;-6.260;2022-07-09T14:22:45;4.43;;;1.35;;
71941;SDS011;59997;53.300;-6.260;2022-07-09T14:25:11;5.90;;;1.30;;
71941;SDS011;59997;53.300;-6.260;2022-07-09T14:27:37;5.70;;;1.50;;
71941;SDS011;59997;53.300;-6.260;2022-07-09T14:30:04;5.47;;;1.60;;
71941;SDS011;59997;53.300;-6.260;2022-07-09T14:32:31;5.83;;;1.43;;
71941;SDS011;59997;53.300;-6.260;2022-07-09T14:34:57;5.10;;;1.45;;
71941;SDS011;59997;53.300;-6.260;2022-07-09T14:37:22;4.72;;;1.67;;
71941;SDS011;59997;53.300;-6.260;2022-07-09T14:39:48;4.97;;;1.50;;